Time,TemperatureF,DewpointF,PressureIn,WindDirection,WindDirectionDegrees,WindSpeedMPH,WindSpeedGustMPH,Humidity,HourlyPrecipIn,Conditions,Clouds,dailyrainin,SoftwareType,DateUTC
2013-05-21 00:03:00,65.0,65.0,-100.00,SSW,199,5.0,-999.0,100,0.00,,,0.00,,2013-05-21 04:03:00,
2013-05-21 00:13:00,65.0,65.0,-100.00,SSW,199,5.0,-999.0,100,0.00,,,0.00,,2013-05-21 04:13:00,
2013-05-21 06:52:00,66.0,66.0,-100.00,SW,234,4.0,-999.0,100,0.00,,,0.00,,2013-05-21 10:52:00,
2013-05-21 07:02:00,66.0,66.0,-100.00,SW,234,4.0,-999.0,100,0.00,,,0.00,,2013-05-21 11:02:00,
2013-05-21 07:12:00,66.0,66.0,-100.00,SW,234,4.0,-999.0,100,0.00,,,0.00,,2013-05-21 11:12:00,
2013-05-21 07:52:00,65.0,65.0,-100.00,SSW,212,3.0,-999.0,100,0.00,,,0.00,,2013-05-21 11:52:00,
2013-05-21 08:01:00,65.0,65.0,-100.00,SSW,212,3.0,-999.0,100,0.00,,,0.00,,2013-05-21 12:01:00,
2013-05-21 08:11:00,65.0,65.0,-100.00,SSW,212,3.0,-999.0,100,0.00,,,0.00,,2013-05-21 12:11:00,
2013-05-21 09:52:00,69.0,67.0,-100.00,West,260,3.0,-999.0,94,0.00,,,0.00,,2013-05-21 13:52:00,
2013-05-21 10:02:00,69.0,67.0,-100.00,West,260,3.0,-999.0,94,0.00,,,0.00,,2013-05-21 14:02:00,
2013-05-21 10:11:00,69.0,67.0,-100.00,West,260,3.0,-999.0,94,0.00,,,0.00,,2013-05-21 14:11:00,
2013-05-21 10:52:00,69.0,64.0,-100.00,South,184,4.0,-999.0,83,0.00,,,0.00,,2013-05-21 14:52:00,
2013-05-21 11:01:00,69.0,64.0,-100.00,South,184,4.0,-999.0,83,0.00,,,0.00,,2013-05-21 15:01:00,
2013-05-21 11:11:00,69.0,64.0,-100.00,South,184,4.0,-999.0,83,0.00,,,0.00,,2013-05-21 15:11:00,
2013-05-21 11:53:00,72.0,65.0,-100.00,SSW,198,6.0,-999.0,79,0.00,,,0.00,,2013-05-21 15:53:00,
2013-05-21 12:03:00,72.0,65.0,-100.00,SSW,198,6.0,-999.0,79,0.00,,,0.00,,2013-05-21 16:03:00,
2013-05-21 12:13:00,72.0,65.0,-100.00,SSW,198,6.0,-999.0,79,0.00,,,0.00,,2013-05-21 16:13:00,
2013-05-21 12:53:00,73.0,65.0,-100.00,SSW,201,6.0,-999.0,77,0.00,,,0.00,,2013-05-21 16:53:00,
2013-05-21 13:02:00,73.0,65.0,-100.00,SSW,201,6.0,-999.0,77,0.00,,,0.00,,2013-05-21 17:02:00,
2013-05-21 13:12:00,73.0,65.0,-100.00,SSW,201,6.0,-999.0,77,0.00,,,0.00,,2013-05-21 17:12:00,
2013-05-21 13:52:00,68.0,62.0,-100.00,SSW,204,12.0,-999.0,81,0.00,,,0.00,,2013-05-21 17:52:00,
2013-05-21 14:02:00,68.0,62.0,-100.00,SSW,204,12.0,-999.0,81,0.00,,,0.00,,2013-05-21 18:02:00,
2013-05-21 14:12:00,68.0,62.0,-100.00,SSW,204,12.0,-999.0,81,0.00,,,0.00,,2013-05-21 18:12:00,
2013-05-21 14:52:00,69.0,63.0,-100.00,SSW,197,8.0,-999.0,80,0.00,,,0.00,,2013-05-21 18:52:00,
2013-05-21 15:02:00,69.0,63.0,-100.00,SSW,197,8.0,-999.0,80,0.00,,,0.00,,2013-05-21 19:02:00,
2013-05-21 15:11:00,69.0,63.0,-100.00,SSW,197,8.0,-999.0,80,0.00,,,0.00,,2013-05-21 19:11:00,
2013-05-21 15:52:00,70.0,63.0,-100.00,SSW,199,12.0,-999.0,79,0.00,,,0.00,,2013-05-21 19:52:00,
2013-05-21 16:03:00,70.0,63.0,-100.00,SSW,199,12.0,-999.0,79,0.00,,,0.00,,2013-05-21 20:03:00,
2013-05-21 16:11:00,70.0,63.0,-100.00,SSW,199,12.0,-999.0,79,0.00,,,0.00,,2013-05-21 20:11:00,
2013-05-21 16:52:00,68.0,62.0,-100.00,SSW,200,11.0,-999.0,80,0.00,,,0.00,,2013-05-21 20:52:00,
2013-05-21 17:02:00,68.0,62.0,-100.00,SSW,200,11.0,-999.0,80,0.00,,,0.00,,2013-05-21 21:02:00,
2013-05-21 17:11:00,68.0,62.0,-100.00,SSW,200,11.0,-999.0,80,0.00,,,0.00,,2013-05-21 21:11:00,
2013-05-21 17:54:00,67.0,61.0,-100.00,SSW,201,14.0,-999.0,80,0.00,,,0.00,,2013-05-21 21:54:00,
2013-05-21 18:02:00,67.0,61.0,-100.00,SSW,201,14.0,-999.0,80,0.00,,,0.00,,2013-05-21 22:02:00,
2013-05-21 18:12:00,67.0,61.0,-100.00,SSW,201,14.0,-999.0,80,0.00,,,0.00,,2013-05-21 22:12:00,
2013-05-21 18:53:00,69.0,63.0,-100.00,SSW,204,13.0,-999.0,81,0.00,,,0.00,,2013-05-21 22:53:00,
2013-05-21 19:02:00,69.0,63.0,-100.00,SSW,204,13.0,-999.0,81,0.00,,,0.00,,2013-05-21 23:02:00,
2013-05-21 19:12:00,69.0,63.0,-100.00,SSW,204,13.0,-999.0,81,0.00,,,0.00,,2013-05-21 23:12:00,
2013-05-21 19:52:00,67.0,66.0,-100.00,SSW,198,10.0,-999.0,96,0.00,,,0.00,,2013-05-21 23:52:00,
2013-05-21 20:01:00,67.0,66.0,-100.00,SSW,198,10.0,-999.0,96,0.00,,,0.00,,2013-05-22 00:01:00,
2013-05-21 20:11:00,67.0,66.0,-100.00,SSW,198,10.0,-999.0,96,0.00,,,0.00,,2013-05-22 00:11:00,
2013-05-21 20:52:00,66.0,66.0,-100.00,SSW,203,12.0,-999.0,100,0.00,,,0.00,,2013-05-22 00:52:00,
2013-05-21 21:01:00,66.0,66.0,-100.00,SSW,203,12.0,-999.0,100,0.00,,,0.00,,2013-05-22 01:01:00,
2013-05-21 21:11:00,66.0,66.0,-100.00,SSW,203,12.0,-999.0,100,0.00,,,0.00,,2013-05-22 01:11:00,
2013-05-21 21:52:00,67.0,66.0,-100.00,SSW,208,9.0,-999.0,97,0.00,,,0.00,,2013-05-22 01:52:00,
2013-05-21 22:02:00,67.0,66.0,-100.00,SSW,208,9.0,-999.0,97,0.00,,,0.00,,2013-05-22 02:02:00,
2013-05-21 22:12:00,67.0,66.0,-100.00,SSW,208,9.0,-999.0,97,0.00,,,0.00,,2013-05-22 02:12:00,
2013-05-21 22:52:00,66.0,66.0,-100.00,SSW,202,8.0,-999.0,100,0.00,,,0.00,,2013-05-22 02:52:00,
2013-05-21 23:01:00,66.0,66.0,-100.00,SSW,202,8.0,-999.0,100,0.00,,,0.00,,2013-05-22 03:01:00,
2013-05-21 23:11:00,66.0,66.0,-100.00,SSW,202,8.0,-999.0,100,0.00,,,0.00,,2013-05-22 03:11:00,
2013-05-21 23:53:00,66.0,66.0,-100.00,SSW,208,5.0,-999.0,100,0.00,,,0.00,,2013-05-22 03:53:00,